Time;durP1;ratioP1;P1;durP2;ratioP2;P2;SDS_P1;SDS_P2;PMS_P1;PMS_P2;Temp;Humidity;BMP_temperature;BMP_pressure;BME280_temperature;BME280_humidity;BME280_pressure;Samples;Min_cycle;Max_cycle;Signal;HPM_P1;HPM_P2
2021/10/31 00:01:08;;;;;;;28.73;7.50;;;;;;;9.90;94.00;100451.00;5075325;28;20127;-49
2021/10/31 00:03:34;;;;;;;29.25;7.75;;;;;;;9.91;93.82;100457.19;5075759;28;20023;-49
2021/10/31 00:05:59;;;;;;;31.05;7.28;;;;;;;9.88;93.47;100451.16;5075524;28;20037;-48
2021/10/31 00:08:24;;;;;;;29.80;6.90;;;;;;;9.88;93.44;100459.22;5075307;28;20079;-49
2021/10/31 00:10:50;;;;;;;25.35;6.22;;;;;;;9.87;93.21;100441.44;5075411;28;20020;-48
2021/10/31 00:13:16;;;;;;;25.45;7.10;;;;;;;9.84;93.05;100454.41;5075902;28;20116;-48
2021/10/31 00:15:41;;;;;;;24.77;7.00;;;;;;;9.82;93.13;100459.13;5074230;28;20429;-48
2021/10/31 00:18:07;;;;;;;23.27;6.43;;;;;;;9.80;92.84;100462.03;5091175;28;20029;-50
2021/10/31 00:20:32;;;;;;;28.65;6.93;;;;;;;9.78;92.65;100469.44;5075600;28;20418;-49
2021/10/31 00:22:58;;;;;;;28.05;6.15;;;;;;;9.77;92.72;100473.16;5075344;28;20391;-50
2021/10/31 00:25:23;;;;;;;23.30;5.55;;;;;;;9.77;92.55;100477.66;5075037;28;20020;-47
2021/10/31 00:27:48;;;;;;;20.80;5.97;;;;;;;9.77;92.64;100478.53;5074966;28;20166;-50
2021/10/31 00:30:14;;;;;;;34.40;5.75;;;;;;;9.75;92.58;100483.25;5075190;28;20029;-48
2021/10/31 00:32:40;;;;;;;33.33;6.22;;;;;;;9.75;92.54;100485.94;5075396;28;20107;-47
2021/10/31 00:35:05;;;;;;;26.50;5.55;;;;;;;9.74;92.81;100476.22;5074992;28;20103;-47
2021/10/31 00:37:31;;;;;;;23.20;5.45;;;;;;;9.74;92.98;100484.28;5074828;28;20111;-47
2021/10/31 00:39:56;;;;;;;28.48;6.65;;;;;;;9.71;92.78;100479.25;5075052;28;20111;-48
2021/10/31 00:42:21;;;;;;;26.73;6.80;;;;;;;9.68;93.02;100476.94;5075178;28;20028;-49
2021/10/31 00:44:47;;;;;;;38.38;6.55;;;;;;;9.66;93.27;100478.97;5074976;28;20498;-47
2021/10/31 00:47:13;;;;;;;39.75;8.20;;;;;;;9.64;93.77;100489.91;5074665;28;20090;-48
2021/10/31 00:49:38;;;;;;;24.88;7.78;;;;;;;9.64;93.94;100486.41;5074956;28;20158;-46
2021/10/31 00:52:04;;;;;;;33.60;7.40;;;;;;;9.64;93.87;100491.78;5074864;28;20020;-49
2021/10/31 00:54:30;;;;;;;32.22;8.52;;;;;;;9.63;93.75;100492.78;5073040;28;20024;-50
2021/10/31 00:56:55;;;;;;;37.45;7.97;;;;;;;9.61;93.69;100498.34;5074795;28;20547;-46
2021/10/31 00:59:20;;;;;;;36.20;9.15;;;;;;;9.63;93.71;100495.47;5074377;28;20483;-47
2021/10/31 01:01:48;;;;;;;27.63;8.27;;;;;;;9.65;94.17;100490.75;5074676;28;20082;-50
2021/10/31 01:04:19;;;;;;;;;;;;;;;9.66;94.11;100485.19;5075149;28;20028;-48
2021/10/31 01:07:01;;;;;;;37.70;9.38;;;;;;;9.69;94.03;100494.75;5074261;28;19908;-50
2021/10/31 01:09:57;;;;;;;24.90;8.02;;;;;;;9.70;94.08;100474.06;5073939;28;20045;-48
2021/10/31 01:12:44;;;;;;;34.08;9.23;;;;;;;9.68;93.73;100472.38;5074312;28;20029;-49
2021/10/31 01:15:34;;;;;;;43.63;9.23;;;;;;;9.65;93.99;100469.25;5074566;28;20029;-49
2021/10/31 01:18:09;;;;;;;42.75;9.55;;;;;;;9.63;94.19;100477.47;5073245;28;20040;-50
2021/10/31 01:20:46;;;;;;;38.65;9.90;;;;;;;9.64;94.28;100470.28;5074485;28;20036;-50
2021/10/31 01:23:48;;;;;;;37.93;9.53;;;;;;;9.62;94.14;100477.69;5074169;28;20488;-47
2021/10/31 01:26:27;;;;;;;34.67;9.70;;;;;;;9.60;94.66;100483.22;5072832;28;21523;-48
2021/10/31 01:29:30;;;;;;;48.75;10.65;;;;;;;9.59;94.32;100480.75;5073054;28;20486;-48
2021/10/31 01:32:07;;;;;;;42.05;10.50;;;;;;;9.56;94.25;100470.38;5074433;28;20036;-47
2021/10/31 01:35:02;;;;;;;37.30;10.80;;;;;;;9.54;94.49;100477.78;5074375;28;20056;-49
2021/10/31 01:37:39;;;;;;;40.17;10.88;;;;;;;9.53;94.61;100476.94;5058800;28;20036;-47
2021/10/31 01:40:19;;;;;;;35.78;9.38;;;;;;;9.51;94.52;100470.09;5074058;28;20107;-46
2021/10/31 01:43:05;;;;;;;37.78;10.15;;;;;;;9.48;94.73;100473.97;5071477;28;20021;-48
2021/10/31 01:46:00;;;;;;;43.42;9.77;;;;;;;9.49;94.53;100475.63;5072492;28;20075;-48
2021/10/31 01:49:03;;;;;;;29.23;9.85;;;;;;;9.49;94.64;100480.16;5073327;28;20090;-47
2021/10/31 01:51:46;;;;;;;32.83;9.00;;;;;;;9.51;94.64;100478.16;5031477;28;20083;-48
2021/10/31 01:54:22;;;;;;;40.03;9.02;;;;;;;9.48;94.67;100478.47;5069160;28;20515;-47
2021/10/31 01:56:51;;;;;;;35.05;8.90;;;;;;;9.48;94.17;100483.84;5073006;28;20043;-47
2021/10/31 01:59:26;;;;;;;40.85;9.30;;;;;;;9.45;94.46;100477.84;5073427;28;20111;-48
2021/10/31 02:01:52;;;;;;;32.92;9.18;;;;;;;9.45;94.25;100477.84;5072367;28;20024;-46
2021/10/31 02:04:19;;;;;;;32.38;8.15;;;;;;;9.45;94.27;100475.16;5071978;28;20028;-46
2021/10/31 02:06:50;;;;;;;33.72;9.10;;;;;;;9.43;94.14;100479.06;5074966;28;20393;-46
2021/10/31 02:09:17;;;;;;;47.40;11.07;;;;;;;9.42;94.30;100480.06;5053122;28;20045;-49
2021/10/31 02:11:44;;;;;;;28.23;9.32;;;;;;;9.38;94.21;100474.22;5052126;28;20025;-46
2021/10/31 02:14:10;;;;;;;29.48;8.23;;;;;;;9.43;94.40;100477.19;5053324;28;20108;-47
2021/10/31 02:16:37;;;;;;;21.35;7.90;;;;;;;9.43;94.29;100477.19;5066562;28;20166;-47
2021/10/31 02:19:05;;;;;;;24.08;7.40;;;;;;;9.42;94.00;100483.56;5072007;28;20048;-48
2021/10/31 02:21:33;;;;;;;;;;;;;;;9.43;94.04;100487.13;5072447;28;20028;-47
2021/10/31 02:24:03;;;;;;;21.13;7.38;;;;;;;9.43;93.88;100484.44;5071977;28;19909;-49
2021/10/31 02:26:29;;;;;;;23.67;7.15;;;;;;;9.40;93.82;100488.31;5073006;28;20050;-46
2021/10/31 02:28:59;;;;;;;29.40;7.10;;;;;;;9.39;93.75;100483.13;5071500;28;20031;-47
2021/10/31 02:31:25;;;;;;;33.83;7.93;;;;;;;9.37;93.19;100488.69;5072965;28;20021;-48
2021/10/31 02:33:51;;;;;;;26.20;7.40;;;;;;;9.38;93.38;100479.59;5072993;28;20059;-46
2021/10/31 02:36:17;;;;;;;25.45;7.43;;;;;;;9.40;93.44;100477.56;5072869;28;20028;-45
2021/10/31 02:38:43;;;;;;;29.05;7.20;;;;;;;9.40;93.10;100482.94;5072549;28;20024;-48
2021/10/31 02:41:09;;;;;;;24.48;6.78;;;;;;;9.40;92.92;100480.25;5072782;28;20032;-45
2021/10/31 02:43:35;;;;;;;42.55;7.72;;;;;;;9.39;92.68;100485.81;5072836;28;20104;-48
2021/10/31 02:46:01;;;;;;;25.10;6.95;;;;;;;9.37;93.21;100477.94;5072849;28;20427;-46
2021/10/31 02:48:27;;;;;;;31.60;8.20;;;;;;;9.36;93.54;100481.63;5072701;28;20063;-47
2021/10/31 02:50:57;;;;;;;24.13;8.43;;;;;;;9.33;93.16;100476.63;5072251;28;20434;-47
2021/10/31 02:54:00;;;;;;;22.85;7.85;;;;;;;9.31;93.08;100484.03;5071365;28;20430;-48
2021/10/31 02:56:28;;;;;;;32.45;8.90;;;;;;;9.30;93.71;100471.63;5071472;28;20119;-47
2021/10/31 02:58:57;;;;;;;32.97;10.00;;;;;;;9.31;93.29;100472.44;5071255;28;20447;-47
2021/10/31 03:01:24;;;;;;;38.08;9.63;;;;;;;9.28;93.49;100467.44;5071266;28;20431;-46
2021/10/31 03:03:52;;;;;;;40.80;9.57;;;;;;;9.25;93.65;100463.28;5072693;28;20108;-46
2021/10/31 03:06:19;;;;;;;29.83;10.10;;;;;;;9.26;93.65;100464.94;5054739;28;20036;-49
2021/10/31 03:08:45;;;;;;;30.47;8.73;;;;;;;9.26;93.60;100459.56;5071775;28;20044;-46
2021/10/31 03:11:11;;;;;;;33.47;9.30;;;;;;;9.24;93.52;100461.59;5072325;28;20032;-49
2021/10/31 03:13:38;;;;;;;32.97;9.43;;;;;;;9.22;93.85;100463.66;5072146;28;20017;-49
2021/10/31 03:16:04;;;;;;;27.95;9.93;;;;;;;9.18;94.04;100460.47;5071887;28;20109;-48
2021/10/31 03:18:30;;;;;;;30.25;9.32;;;;;;;9.17;93.86;100453.44;5071886;28;20032;-47
2021/10/31 03:20:56;;;;;;;30.40;9.52;;;;;;;9.18;93.48;100451.59;5072031;28;20051;-49
2021/10/31 03:23:21;;;;;;;29.58;10.02;;;;;;;9.12;93.64;100447.78;5072241;28;20467;-46
2021/10/31 03:25:46;;;;;;;33.35;8.65;;;;;;;9.14;93.99;100450.31;5072247;28;20102;-49
2021/10/31 03:28:12;;;;;;;24.58;8.90;;;;;;;9.15;93.62;100446.59;5072145;28;20025;-48
2021/10/31 03:30:37;;;;;;;25.38;10.82;;;;;;;9.11;93.64;100446.13;5070949;28;20090;-48
2021/10/31 03:33:03;;;;;;;25.02;9.40;;;;;;;9.06;93.54;100436.94;5071971;28;20090;-47
2021/10/31 03:35:28;;;;;;;31.23;9.65;;;;;;;9.06;93.87;100436.94;5072009;28;20035;-49
2021/10/31 03:37:54;;;;;;;29.55;10.25;;;;;;;9.05;93.78;100440.66;5071902;28;20475;-46
2021/10/31 03:40:19;;;;;;;30.30;10.07;;;;;;;9.05;93.85;100437.97;5072123;28;20047;-46
2021/10/31 03:42:45;;;;;;;30.65;12.23;;;;;;;9.03;94.03;100435.47;5072170;28;20024;-47
2021/10/31 03:45:11;;;;;;;31.17;10.90;;;;;;;9.02;94.50;100429.25;5072145;28;20059;-44
2021/10/31 03:47:41;;;;;;;29.90;10.90;;;;;;;9.01;94.22;100430.28;5075442;28;20028;-45
2021/10/31 03:50:07;;;;;;;35.65;11.07;;;;;;;9.05;94.39;100429.91;5074559;28;20156;-56
2021/10/31 03:52:32;;;;;;;28.38;11.80;;;;;;;9.06;94.47;100421.69;5075127;28;20063;-47
2021/10/31 03:54:58;;;;;;;29.85;12.10;;;;;;;9.06;94.20;100426.19;5074222;28;20506;-46
2021/10/31 03:57:23;;;;;;;25.35;11.00;;;;;;;9.07;94.17;100426.03;5074016;28;20045;-47
2021/10/31 03:59:49;;;;;;;23.75;10.35;;;;;;;9.12;94.13;100430.84;5071742;28;20103;-49
2021/10/31 04:02:14;;;;;;;30.98;11.57;;;;;;;9.11;94.22;100421.13;5070848;28;20395;-46
2021/10/31 04:04:39;;;;;;;31.95;11.75;;;;;;;9.10;93.83;100428.34;5071678;28;20146;-49
2021/10/31 04:07:05;;;;;;;29.20;10.75;;;;;;;9.11;93.72;100430.03;5072003;28;20112;-49
2021/10/31 04:09:30;;;;;;;36.55;10.25;;;;;;;9.12;93.42;100425.47;5069747;28;20133;-46
2021/10/31 04:11:55;;;;;;;28.30;10.45;;;;;;;9.15;93.53;100438.53;5070931;28;20035;-46
2021/10/31 04:14:21;;;;;;;24.20;9.77;;;;;;;9.17;93.36;100420.41;5071283;28;20023;-48
2021/10/31 04:16:46;;;;;;;32.60;9.98;;;;;;;9.20;92.66;100403.91;5071397;28;20537;-46
2021/10/31 04:19:12;;;;;;;25.83;10.77;;;;;;;9.18;92.77;100420.19;5071722;28;20153;-45
2021/10/31 04:21:38;;;;;;;27.10;10.30;;;;;;;9.19;92.71;100418.38;5071727;28;20506;-47
2021/10/31 04:24:03;;;;;;;33.90;10.70;;;;;;;9.13;92.77;100421.78;5071592;28;20386;-48
2021/10/31 04:26:29;;;;;;;28.75;11.10;;;;;;;9.08;93.00;100418.81;5071368;28;20055;-46
2021/10/31 04:28:54;;;;;;;25.80;11.15;;;;;;;9.06;92.81;100415.44;5072104;28;20028;-46
2021/10/31 04:31:19;;;;;;;24.20;10.38;;;;;;;9.06;92.77;100410.09;5074895;28;20028;-46
2021/10/31 04:33:45;;;;;;;30.92;10.77;;;;;;;9.04;93.04;100406.78;5075246;28;20136;-51
2021/10/31 04:36:11;;;;;;;34.45;10.82;;;;;;;9.00;93.19;100404.47;5075006;28;20020;-46
2021/10/31 04:38:36;;;;;;;30.67;11.30;;;;;;;8.98;93.31;100413.72;5075088;28;20364;-46
2021/10/31 04:41:02;;;;;;;25.85;12.15;;;;;;;9.00;93.15;100415.19;5074788;28;20089;-47
2021/10/31 04:43:28;;;;;;;31.08;11.98;;;;;;;8.97;93.17;100418.22;5074967;28;20036;-46
2021/10/31 04:45:54;;;;;;;30.50;12.63;;;;;;;8.98;93.14;100413.72;5084768;28;20024;-48
2021/10/31 04:48:21;;;;;;;40.50;12.40;;;;;;;8.94;93.08;100413.22;5076673;28;20036;-48
2021/10/31 04:50:47;;;;;;;43.67;12.73;;;;;;;8.98;92.81;100417.22;5074941;28;20124;-46
2021/10/31 04:53:13;;;;;;;37.88;13.45;;;;;;;8.99;93.07;100415.38;5074854;28;20100;-47
2021/10/31 04:55:39;;;;;;;37.42;13.55;;;;;;;8.98;92.68;100402.97;5073579;28;20028;-46
2021/10/31 04:58:05;;;;;;;29.15;13.93;;;;;;;8.95;93.06;100406.00;5074436;28;20025;-49
2021/10/31 05:00:31;;;;;;;32.72;13.65;;;;;;;8.91;92.94;100408.22;5074671;28;20038;-46
2021/10/31 05:02:56;;;;;;;39.85;13.50;;;;;;;8.89;92.94;100404.06;5073415;28;20023;-45
2021/10/31 05:05:22;;;;;;;37.13;15.23;;;;;;;8.88;92.93;100391.66;5073516;28;20483;-47
2021/10/31 05:07:49;;;;;;;43.00;15.93;;;;;;;8.87;92.81;100393.50;5072925;28;20028;-47
2021/10/31 05:10:17;;;;;;;37.38;16.90;;;;;;;8.89;93.00;100388.78;5074256;28;20080;-48
2021/10/31 05:12:43;;;;;;;44.97;17.70;;;;;;;8.91;92.91;100396.66;5074612;28;20090;-46
2021/10/31 05:15:09;;;;;;;38.60;17.75;;;;;;;8.88;92.77;100386.28;5074763;28;20468;-47
2021/10/31 05:17:34;;;;;;;39.70;18.15;;;;;;;8.88;92.53;100387.13;5074257;28;20490;-45
2021/10/31 05:20:00;;;;;;;40.85;17.73;;;;;;;8.87;93.01;100381.94;5074146;28;20021;-47
2021/10/31 05:22:26;;;;;;;42.70;18.83;;;;;;;8.86;92.61;100375.72;5074369;28;20472;-49
2021/10/31 05:24:51;;;;;;;51.08;19.48;;;;;;;8.78;92.68;100373.94;5074077;28;20031;-45
2021/10/31 05:27:16;;;;;;;54.40;19.08;;;;;;;8.78;93.13;100371.28;5074396;28;20115;-49
2021/10/31 05:29:42;;;;;;;45.05;20.08;;;;;;;8.73;92.72;100370.97;5074366;28;20033;-47
2021/10/31 05:32:09;;;;;;;59.38;20.52;;;;;;;8.69;93.33;100366.16;5074179;28;20060;-48
2021/10/31 05:34:34;;;;;;;60.17;21.45;;;;;;;8.64;93.65;100358.66;5074252;28;20507;-46
2021/10/31 05:36:59;;;;;;;52.63;23.48;;;;;;;8.59;93.96;100355.69;5073000;28;20108;-48
2021/10/31 05:39:25;;;;;;;51.13;23.17;;;;;;;8.55;93.57;100360.56;5072475;28;20044;-47
2021/10/31 05:41:50;;;;;;;53.17;22.80;;;;;;;8.55;94.39;100363.25;5055605;28;20090;-46
2021/10/31 05:44:15;;;;;;;61.58;24.90;;;;;;;8.55;94.18;100360.56;5073856;28;20107;-49
2021/10/31 05:46:41;;;;;;;61.58;24.63;;;;;;;8.54;94.13;100348.19;5073815;28;20069;-48
2021/10/31 05:49:07;;;;;;;60.05;24.38;;;;;;;8.55;94.26;100344.47;5073576;28;20074;-47
2021/10/31 05:51:33;;;;;;;56.95;24.80;;;;;;;8.55;94.41;100349.00;5073629;28;20054;-47
2021/10/31 05:53:58;;;;;;;60.00;26.08;;;;;;;8.60;93.99;100345.78;5072654;28;20032;-48
2021/10/31 05:56:23;;;;;;;61.70;25.10;;;;;;;8.61;93.82;100348.31;5073502;28;20024;-49
2021/10/31 05:58:49;;;;;;;59.47;24.70;;;;;;;8.59;94.45;100344.13;5073694;28;20029;-49
2021/10/31 06:01:14;;;;;;;63.22;25.73;;;;;;;8.59;94.34;100336.09;5073457;28;20031;-46
2021/10/31 06:03:40;;;;;;;61.15;26.20;;;;;;;8.59;94.28;100338.78;5073597;28;20032;-46
2021/10/31 06:06:05;;;;;;;63.92;26.13;;;;;;;8.59;94.09;100334.22;5071243;28;20028;-48
2021/10/31 06:08:31;;;;;;;60.38;24.35;;;;;;;8.62;94.15;100338.41;5069884;28;20055;-48
2021/10/31 06:10:56;;;;;;;62.70;25.15;;;;;;;8.61;94.43;100336.72;5044898;28;20028;-48
2021/10/31 06:13:21;;;;;;;60.42;26.00;;;;;;;8.64;94.28;100333.69;5050344;28;20029;-45
2021/10/31 06:15:47;;;;;;;59.33;24.52;;;;;;;8.66;94.45;100345.06;5050362;28;20025;-46
2021/10/31 06:18:16;;;;;;;64.38;24.40;;;;;;;8.67;94.14;100341.38;5050650;28;20593;-47
2021/10/31 06:20:41;;;;;;;58.15;24.88;;;;;;;8.67;94.30;100330.66;5050410;28;20067;-47
2021/10/31 06:23:07;;;;;;;61.53;24.55;;;;;;;8.63;94.42;100329.31;5050327;28;20499;-45
2021/10/31 06:25:32;;;;;;;55.72;24.02;;;;;;;8.67;94.04;100323.44;5058285;28;20028;-47
2021/10/31 06:27:57;;;;;;;58.13;23.88;;;;;;;8.67;94.02;100315.38;5068340;28;20036;-47
2021/10/31 06:30:23;;;;;;;63.17;25.02;;;;;;;8.68;94.23;100305.47;5070123;28;20320;-47
2021/10/31 06:32:49;;;;;;;65.82;24.40;;;;;;;8.67;94.52;100310.00;5069966;28;20448;-48
2021/10/31 06:35:14;;;;;;;65.35;24.25;;;;;;;8.68;94.29;100306.31;5071143;28;20056;-49
2021/10/31 06:37:40;;;;;;;66.80;24.55;;;;;;;8.66;94.43;100297.63;5072383;28;20507;-45
2021/10/31 06:40:06;;;;;;;63.08;24.23;;;;;;;8.68;94.09;100297.44;5069746;28;20025;-47
2021/10/31 06:42:31;;;;;;;60.72;23.95;;;;;;;8.70;94.41;100298.09;5063786;28;20021;-48
2021/10/31 06:44:57;;;;;;;57.13;23.38;;;;;;;8.73;94.12;100300.41;5052061;28;20051;-47
2021/10/31 06:47:23;;;;;;;53.75;22.17;;;;;;;8.72;94.34;100290.69;5064790;28;20105;-47
2021/10/31 06:49:48;;;;;;;53.25;21.92;;;;;;;8.74;94.23;100288.63;5069591;28;20021;-48
2021/10/31 06:52:14;;;;;;;49.05;20.75;;;;;;;8.82;93.70;100285.03;5069306;28;20047;-45
2021/10/31 06:54:39;;;;;;;56.65;21.88;;;;;;;8.82;93.58;100285.91;5067868;28;20364;-46
2021/10/31 06:57:05;;;;;;;55.90;21.20;;;;;;;8.83;93.93;100286.72;5069609;28;20177;-46
2021/10/31 06:59:33;;;;;;;49.17;20.75;;;;;;;8.87;93.92;100266.53;5069009;28;20508;-45
2021/10/31 07:02:00;;;;;;;57.33;23.67;;;;;;;8.86;93.47;100265.72;5069243;28;20391;-45
2021/10/31 07:04:26;;;;;;;52.60;21.77;;;;;;;8.91;93.95;100279.41;5069550;28;20033;-45
2021/10/31 07:06:52;;;;;;;59.88;21.23;;;;;;;8.96;93.64;100252.84;5068878;28;20036;-49
2021/10/31 07:09:18;;;;;;;53.35;21.42;;;;;;;8.96;93.44;100244.78;5067630;28;20101;-48
2021/10/31 07:11:44;;;;;;;54.88;21.85;;;;;;;8.99;93.24;100243.59;5069369;28;20446;-49
2021/10/31 07:14:10;;;;;;;49.67;22.00;;;;;;;8.96;93.40;100255.53;5069471;28;20578;-46
2021/10/31 07:16:36;;;;;;;52.10;21.45;;;;;;;8.99;93.79;100248.97;5067410;28;20151;-48
2021/10/31 07:19:01;;;;;;;53.60;22.13;;;;;;;9.10;93.55;100253.03;5068230;28;20035;-46
2021/10/31 07:21:27;;;;;;;59.17;22.75;;;;;;;9.10;93.17;100245.78;5067697;28;20032;-47
2021/10/31 07:23:52;;;;;;;59.25;23.25;;;;;;;9.18;93.60;100234.13;5068170;28;20028;-47
2021/10/31 07:26:18;;;;;;;50.05;21.80;;;;;;;9.18;93.06;100231.44;5069454;28;20323;-48
2021/10/31 07:28:43;;;;;;;49.80;20.70;;;;;;;9.21;93.28;100245.31;5068614;28;20024;-46
2021/10/31 07:31:10;;;;;;;49.97;22.45;;;;;;;9.26;92.94;100254.66;5068634;28;20143;-46
2021/10/31 07:33:35;;;;;;;48.33;22.23;;;;;;;9.30;93.07;100250.59;5067235;28;20042;-47
2021/10/31 07:36:01;;;;;;;46.58;21.73;;;;;;;9.32;93.06;100249.38;5068623;28;20025;-45
2021/10/31 07:38:27;;;;;;;45.45;20.08;;;;;;;9.37;93.00;100246.97;5069369;28;20059;-48
2021/10/31 07:40:53;;;;;;;51.17;20.65;;;;;;;9.42;92.61;100249.91;5069384;28;20148;-47
2021/10/31 07:43:18;;;;;;;45.33;20.15;;;;;;;9.45;92.53;100259.44;5049424;28;20129;-49
2021/10/31 07:45:43;;;;;;;47.38;21.35;;;;;;;9.45;92.35;100254.91;5052279;28;20033;-48
2021/10/31 07:48:09;;;;;;;43.28;20.60;;;;;;;9.51;92.15;100253.31;5052129;28;20029;-49
2021/10/31 07:50:35;;;;;;;48.90;21.95;;;;;;;9.58;92.02;100254.19;5063924;28;20106;-47
2021/10/31 07:53:08;;;;;;;44.00;19.55;;;;;;;9.62;92.27;100257.38;5070954;28;20024;-45
2021/10/31 07:55:35;;;;;;;52.80;20.25;;;;;;;9.64;92.03;100258.00;5071080;28;20105;-47
2021/10/31 07:58:02;;;;;;;51.03;20.55;;;;;;;9.72;91.81;100255.19;5072079;28;20032;-48
2021/10/31 08:00:28;;;;;;;43.42;19.80;;;;;;;9.75;91.38;100244.06;5068969;28;20048;-48
2021/10/31 08:02:54;;;;;;;41.90;19.75;;;;;;;9.80;91.63;100232.75;5068699;28;20024;-47
2021/10/31 08:05:21;;;;;;;41.67;19.48;;;;;;;9.92;90.87;100216.94;5075705;28;20036;-46
2021/10/31 08:07:46;;;;;;;38.17;18.63;;;;;;;9.99;90.57;100212.44;5076119;28;20064;-47
2021/10/31 08:10:12;;;;;;;42.85;18.55;;;;;;;10.08;90.66;100201.38;5074627;28;20575;-46
2021/10/31 08:12:38;;;;;;;30.95;15.77;;;;;;;10.19;89.87;100200.00;5075553;28;20020;-46
2021/10/31 08:15:04;;;;;;;36.90;17.10;;;;;;;10.31;89.03;100195.75;5074947;28;20075;-49
2021/10/31 08:17:29;;;;;;;36.08;16.65;;;;;;;10.39;88.91;100191.28;5075709;28;20032;-45
2021/10/31 08:19:54;;;;;;;34.97;16.20;;;;;;;10.51;88.44;100195.09;5074663;28;20493;-46
2021/10/31 08:22:20;;;;;;;37.38;16.63;;;;;;;10.52;87.91;100196.75;5075594;28;20040;-46
2021/10/31 08:24:46;;;;;;;28.40;15.82;;;;;;;10.64;87.82;100189.78;5075213;28;20035;-46
2021/10/31 08:27:11;;;;;;;37.25;15.02;;;;;;;10.76;86.93;100188.19;5075319;28;20494;-48
2021/10/31 08:29:37;;;;;;;30.25;14.15;;;;;;;10.90;86.73;100186.41;5057712;28;20043;-47
2021/10/31 08:32:03;;;;;;;29.20;13.38;;;;;;;10.98;86.27;100183.53;5075014;28;21707;-46
2021/10/31 08:34:28;;;;;;;23.35;12.90;;;;;;;10.88;86.29;100182.25;5075414;28;20483;-48
2021/10/31 08:36:54;;;;;;;25.63;13.48;;;;;;;10.96;86.11;100163.22;5075603;28;20060;-49
2021/10/31 08:39:19;;;;;;;26.75;12.20;;;;;;;11.03;86.25;100165.94;5074062;28;20086;-49
2021/10/31 08:41:45;;;;;;;24.85;13.25;;;;;;;10.95;86.33;100159.72;5075333;28;20052;-47
2021/10/31 08:44:11;;;;;;;22.38;11.95;;;;;;;10.94;86.21;100159.91;5074896;28;20103;-46
2021/10/31 08:46:37;;;;;;;29.30;12.93;;;;;;;10.88;87.26;100168.78;5075324;28;20078;-49
2021/10/31 08:49:03;;;;;;;28.05;13.00;;;;;;;10.87;87.07;100162.53;5075244;28;20032;-47
2021/10/31 08:51:28;;;;;;;28.40;12.88;;;;;;;10.85;87.42;100161.09;5074754;28;20029;-49
2021/10/31 08:53:55;;;;;;;23.05;12.98;;;;;;;10.92;87.07;100168.16;5074518;28;20027;-46
2021/10/31 08:56:22;;;;;;;22.13;12.50;;;;;;;10.95;87.08;100164.25;5075137;28;20032;-48
2021/10/31 08:58:48;;;;;;;20.40;10.93;;;;;;;11.04;86.38;100149.59;5074775;28;20028;-49
2021/10/31 09:01:14;;;;;;;20.08;11.50;;;;;;;11.19;85.79;100152.13;5074321;28;20368;-46
2021/10/31 09:03:40;;;;;;;22.90;12.65;;;;;;;11.23;85.37;100126.44;5074632;28;20055;-51
2021/10/31 09:06:05;;;;;;;18.85;10.68;;;;;;;11.27;85.83;100130.38;5074170;28;20024;-49
2021/10/31 09:08:31;;;;;;;22.58;11.43;;;;;;;11.40;84.76;100119.63;5065721;28;20075;-47
2021/10/31 09:10:56;;;;;;;17.88;10.55;;;;;;;11.51;84.23;100107.41;5074408;28;20051;-48
2021/10/31 09:13:22;;;;;;;22.63;10.27;;;;;;;11.47;84.23;100103.47;5073579;28;20024;-46
2021/10/31 09:15:49;;;;;;;19.23;9.40;;;;;;;11.41;84.43;100096.22;5071912;28;20024;-47
2021/10/31 09:18:15;;;;;;;19.67;9.10;;;;;;;11.38;84.67;100099.31;5073024;28;20036;-47
2021/10/31 09:20:40;;;;;;;18.63;9.60;;;;;;;11.33;84.72;100096.41;5074758;28;20381;-49
2021/10/31 09:23:06;;;;;;;20.33;8.95;;;;;;;11.31;85.07;100095.78;5074714;28;20380;-48
2021/10/31 09:25:31;;;;;;;19.92;8.98;;;;;;;11.27;84.29;100089.97;5073414;28;20460;-46
2021/10/31 09:27:58;;;;;;;18.00;8.68;;;;;;;11.23;85.28;100079.81;5073206;28;20048;-48
2021/10/31 09:30:25;;;;;;;19.30;9.32;;;;;;;11.19;85.62;100079.41;5073020;28;20075;-48
2021/10/31 09:32:51;;;;;;;14.32;9.00;;;;;;;11.20;85.77;100081.06;5074158;28;20738;-48
2021/10/31 09:35:22;;;;;;;20.00;8.27;;;;;;;11.18;85.22;100065.09;5074447;28;20108;-47
2021/10/31 09:37:51;;;;;;;13.27;8.60;;;;;;;11.16;85.24;100059.09;5073594;28;20032;-48
2021/10/31 09:40:17;;;;;;;12.13;7.78;;;;;;;11.16;85.56;100056.41;5074107;28;20025;-48
2021/10/31 09:42:42;;;;;;;20.17;7.82;;;;;;;11.16;85.28;100051.03;5073695;28;20024;-49
2021/10/31 09:45:09;;;;;;;14.68;7.85;;;;;;;11.18;85.16;100034.63;5070445;28;20026;-49
2021/10/31 09:47:34;;;;;;;15.02;7.90;;;;;;;11.25;85.00;100024.72;5066947;28;20056;-46
2021/10/31 09:50:00;;;;;;;18.50;6.68;;;;;;;11.26;85.04;100030.91;5073604;28;20075;-48
2021/10/31 09:52:27;;;;;;;15.15;7.75;;;;;;;11.26;85.41;100007.50;5073605;28;20027;-48
2021/10/31 09:54:53;;;;;;;14.63;7.43;;;;;;;11.27;85.04;100000.25;5073812;28;20024;-48
2021/10/31 09:57:18;;;;;;;15.45;6.70;;;;;;;11.30;84.52;99995.28;5073736;28;20033;-50
2021/10/31 09:59:51;;;;;;;18.40;6.88;;;;;;;11.33;84.45;100007.50;5073092;28;20090;-48
2021/10/31 10:05:26;;;;;;;19.67;6.60;;;;;;;11.48;83.91;100002.75;5073843;28;20039;-48
2021/10/31 10:08:17;;;;;;;11.88;6.22;;;;;;;11.48;84.52;100013.53;5072734;28;20490;-47
2021/10/31 10:10:49;;;;;;;12.70;7.05;;;;;;;11.49;84.37;100008.97;5059406;28;20090;-48
2021/10/31 10:13:19;;;;;;;13.20;6.68;;;;;;;11.52;83.86;100013.94;5073053;28;20025;-47
2021/10/31 10:15:46;;;;;;;13.70;6.57;;;;;;;11.54;84.10;100004.59;5073039;28;20494;-47
2021/10/31 10:18:27;;;;;;;16.23;6.25;;;;;;;11.61;84.10;100007.28;5072325;28;20036;-48
2021/10/31 10:20:52;;;;;;;12.98;6.43;;;;;;;11.71;83.77;100004.16;5071365;28;20024;-51
2021/10/31 10:23:19;;;;;;;10.93;6.35;;;;;;;11.68;83.21;99991.09;5073241;28;20552;-50
2021/10/31 10:25:44;;;;;;;8.65;5.80;;;;;;;11.70;83.34;99989.84;5073087;28;20463;-50
2021/10/31 10:28:25;;;;;;;24.35;6.38;;;;;;;11.65;83.65;99979.69;5072908;28;20032;-48
2021/10/31 10:30:51;;;;;;;11.77;5.93;;;;;;;11.71;83.81;99963.72;5073159;28;20404;-50
2021/10/31 10:33:21;;;;;;;17.90;5.80;;;;;;;11.74;83.41;99955.22;5073272;28;20056;-46
2021/10/31 10:35:48;;;;;;;12.07;5.95;;;;;;;11.73;82.66;99940.09;5088714;28;20041;-47
2021/10/31 10:38:17;;;;;;;15.02;4.80;;;;;;;11.75;82.76;99935.31;5071924;28;20506;-47
2021/10/31 10:40:42;;;;;;;11.07;5.50;;;;;;;11.78;82.92;99926.81;5072966;28;20048;-49
2021/10/31 10:43:07;;;;;;;10.88;5.38;;;;;;;11.79;82.94;99912.28;5072965;28;20378;-47
2021/10/31 10:45:33;;;;;;;11.70;5.80;;;;;;;11.84;82.73;99912.47;5072892;28;20021;-47
2021/10/31 10:48:01;;;;;;;14.80;5.90;;;;;;;11.85;82.17;99914.13;5071778;28;20032;-50
2021/10/31 10:50:40;;;;;;;11.75;5.55;;;;;;;11.95;82.03;99902.91;5072585;28;20448;-51
2021/10/31 10:53:19;;;;;;;17.83;5.28;;;;;;;11.94;81.81;99894.00;5072792;28;20442;-47
2021/10/31 10:55:45;;;;;;;15.80;5.90;;;;;;;12.00;81.79;99897.69;5071895;28;20036;-46
2021/10/31 10:58:14;;;;;;;16.35;5.65;;;;;;;11.97;81.76;99904.34;5072444;28;20476;-48
2021/10/31 11:00:43;;;;;;;9.85;4.63;;;;;;;12.04;81.04;99905.16;5072749;28;20399;-47
2021/10/31 11:03:13;;;;;;;9.68;4.65;;;;;;;12.10;81.46;99903.47;5072482;28;20495;-47
2021/10/31 11:05:41;;;;;;;8.05;4.50;;;;;;;12.04;81.39;99907.84;5072620;28;20036;-46
2021/10/31 11:08:14;;;;;;;10.02;4.93;;;;;;;12.15;80.74;99905.53;5072384;28;20039;-46
2021/10/31 11:10:57;;;;;;;13.43;4.57;;;;;;;12.14;81.20;99899.31;5071138;28;20119;-47
2021/10/31 11:13:23;;;;;;;9.05;4.13;;;;;;;12.14;80.81;99896.63;5072668;28;20024;-48
2021/10/31 11:15:49;;;;;;;6.10;3.25;;;;;;;12.19;80.58;99909.44;5072621;28;20042;-47
2021/10/31 11:18:16;;;;;;;7.95;3.90;;;;;;;12.19;80.72;99891.41;5072597;28;20103;-48
2021/10/31 11:20:44;;;;;;;9.65;3.72;;;;;;;12.13;81.30;99902.22;5072598;28;20056;-47
2021/10/31 11:23:11;;;;;;;6.78;3.95;;;;;;;12.12;81.66;99911.34;5072560;28;20100;-49
2021/10/31 11:25:39;;;;;;;6.28;3.25;;;;;;;12.02;82.51;99904.53;5072298;28;20036;-50